Аэропорт: Шереметьево. Москва

ICAO: UUEE

METAR:
2019/05/26 14:00
UUEE 261400Z 32002MPS 280V010 9999 SCT050TCU 21/12 Q1004 R24L/CLRD62 R24C/CLRD62 NOSIG
METAR:
2019/05/26 12:21
TAF UUEE 261056Z 2612/2712 26005MPS 9999 BKN015 TX22/2612Z TN11/2701Z 
      TEMPO 2612/2616 -SHRA BKN015CB PROB40 
      TEMPO 2612/2616 -TSRA BKN012CB 
      TEMPO 2706/2709 25008G13MPS